Meridien — FT2092 — position and weather

sailwx.info

Track history (hours):
 
Tides and Currents Weather Stations Pressure Air Temp Water Temp Dewpoint Dewpoint Depression Visibility Wind Speed Wind Dir Waves Ship Positions

Meridien

Last reported at 2015-Aug-03 12:31 UTC. Time now 2015-Aug-03 23:18 UTC.
Position N 43°18' E 004°55'.

Length 21 m.

MMSI: 227321780.

Date/timePositionNaut miles runAvg speedWind from/ knotsBaromVisibWave heightAir tempDewpointWater temp
2015-Aug-03 12:31N 43°18' E 004°55'4 3.8
2015-Aug-03 11:33N 43°15' E 004°56'4 3.9
2015-Aug-03 10:34N 43°11' E 004°55'3 3.3
2015-Aug-03 09:33N 43°09' E 004°51'4 3.6
2015-Aug-03 08:33N 43°06' E 004°50'5 2.7
2015-Aug-03 06:33N 43°05' E 004°57'3 3.4
2015-Aug-03 05:33N 43°04' E 004°53'3 3.3
2015-Aug-03 04:29N 43°07' E 004°51'15 4.8
2015-Aug-03 01:24N 43°21' E 004°58'  
2015-Jul-30 10:26N 43°20' E 004°56'4 4.1
2015-Jul-30 09:30N 43°19' E 005°01'4 2.1
2015-Jul-30 07:29N 43°18' E 004°55'2 2.3
2015-Jul-30 06:28N 43°20' E 004°56'3 3.7
2015-Jul-30 05:33N 43°18' E 004°52'4 3.5
2015-Jul-30 04:33N 43°18' E 004°47'4 3.6
2015-Jul-30 03:27N 43°19' E 004°52'8 0.6
2015-Jul-29 14:33N 43°24' E 004°60'3 2.8
2015-Jul-29 13:34N 43°22' E 004°58'4 4.0
2015-Jul-29 12:33N 43°18' E 004°55'3 2.6
2015-Jul-29 11:33N 43°20' E 004°58'4 3.7
2015-Jul-29 10:27N 43°17' E 005°02'3 2.7
2015-Jul-29 09:31N 43°15' E 005°04'4 3.6
2015-Jul-29 08:24N 43°11' E 005°05'4 3.8
2015-Jul-29 07:22N 43°11' E 005°00'3 3.1
2015-Jul-29 06:33N 43°13' E 004°58'3 3.3
2015-Jul-29 05:33N 43°13' E 005°02'3 1.3
2015-Jul-29 03:33N 43°11' E 005°00'4 3.2
2015-Jul-29 02:17N 43°15' E 004°57'6 8.5
2015-Jul-29 01:33N 43°21' E 004°58'4 0.4
2015-Jul-28 15:26N 43°24' E 004°60'0 0.0
2015-Jul-28 14:33N 43°24' E 004°60'3 3.1
2015-Jul-28 13:33N 43°21' E 004°58'2 2.4
2015-Jul-28 12:33N 43°20' E 004°56'3 3.5
2015-Jul-28 11:33N 43°18' E 004°52'3 3.3
2015-Jul-28 10:33N 43°16' E 004°56'4 3.8
2015-Jul-28 09:33N 43°17' E 005°02'3 2.5
2015-Jul-28 08:17N 43°18' E 004°57'3 3.9
2015-Jul-28 07:33N 43°18' E 004°53'4 3.8
2015-Jul-28 06:33N 43°18' E 004°48'4 3.5
2015-Jul-28 05:33N 43°19' E 004°53'2 0.1
2015-Jul-27 12:30N 43°20' E 004°55'3 3.4
2015-Jul-27 11:33N 43°17' E 004°54'4 3.8
2015-Jul-27 10:33N 43°16' E 004°59'6 1.6
2015-Jul-27 06:33N 43°10' E 005°01'4 4.0
2015-Jul-27 05:33N 43°09' E 004°56'3 3.3
2015-Jul-27 04:33N 43°08' E 004°51'3 2.7
2015-Jul-27 03:30N 43°10' E 004°54'4 3.8
2015-Jul-27 02:32N 43°13' E 004°56'9 7.1
2015-Jul-27 01:19N 43°22' E 004°59'  
2015-Jul-24 17:34N 43°24' E 004°59'0 0.4
2015-Jul-24 16:33N 43°24' E 004°60'0 0.0
2015-Jul-24 15:34N 43°24' E 004°60'0 0.0
2015-Jul-24 14:33N 43°24' E 004°60'3 3.4
2015-Jul-24 13:33N 43°21' E 004°58'9 8.5
2015-Jul-24 12:33N 43°13' E 004°55'  
Track history (hours):
 
Tides and Currents Weather Stations Pressure Air Temp Water Temp Dewpoint Dewpoint Depression Visibility Wind Speed Wind Dir Waves Ship Positions

Meridien

Last reported at 2015-Aug-03 12:31 UTC. Time now 2015-Aug-03 23:18 UTC.
Position N 43°18' E 004°55'.

Length 21 m.

MMSI: 227321780.

Date/timePositionNaut miles runAvg speedWind from/ knotsBaromVisibWave heightAir tempDewpointWater temp
2015-Aug-03 12:31N 43°18' E 004°55'4 3.8
2015-Aug-03 11:33N 43°15' E 004°56'4 3.9
2015-Aug-03 10:34N 43°11' E 004°55'3 3.3
2015-Aug-03 09:33N 43°09' E 004°51'4 3.6
2015-Aug-03 08:33N 43°06' E 004°50'5 2.7
2015-Aug-03 06:33N 43°05' E 004°57'3 3.4
2015-Aug-03 05:33N 43°04' E 004°53'3 3.3
2015-Aug-03 04:29N 43°07' E 004°51'15 4.8
2015-Aug-03 01:24N 43°21' E 004°58'  
2015-Jul-30 10:26N 43°20' E 004°56'4 4.1
2015-Jul-30 09:30N 43°19' E 005°01'4 2.1
2015-Jul-30 07:29N 43°18' E 004°55'2 2.3
2015-Jul-30 06:28N 43°20' E 004°56'3 3.7
2015-Jul-30 05:33N 43°18' E 004°52'4 3.5
2015-Jul-30 04:33N 43°18' E 004°47'4 3.6
2015-Jul-30 03:27N 43°19' E 004°52'8 0.6
2015-Jul-29 14:33N 43°24' E 004°60'3 2.8
2015-Jul-29 13:34N 43°22' E 004°58'4 4.0
2015-Jul-29 12:33N 43°18' E 004°55'3 2.6
2015-Jul-29 11:33N 43°20' E 004°58'4 3.7
2015-Jul-29 10:27N 43°17' E 005°02'3 2.7
2015-Jul-29 09:31N 43°15' E 005°04'4 3.6
2015-Jul-29 08:24N 43°11' E 005°05'4 3.8
2015-Jul-29 07:22N 43°11' E 005°00'3 3.1
2015-Jul-29 06:33N 43°13' E 004°58'3 3.3
2015-Jul-29 05:33N 43°13' E 005°02'3 1.3
2015-Jul-29 03:33N 43°11' E 005°00'4 3.2
2015-Jul-29 02:17N 43°15' E 004°57'6 8.5
2015-Jul-29 01:33N 43°21' E 004°58'4 0.4
2015-Jul-28 15:26N 43°24' E 004°60'0 0.0
2015-Jul-28 14:33N 43°24' E 004°60'3 3.1
2015-Jul-28 13:33N 43°21' E 004°58'2 2.4
2015-Jul-28 12:33N 43°20' E 004°56'3 3.5
2015-Jul-28 11:33N 43°18' E 004°52'3 3.3
2015-Jul-28 10:33N 43°16' E 004°56'4 3.8
2015-Jul-28 09:33N 43°17' E 005°02'3 2.5
2015-Jul-28 08:17N 43°18' E 004°57'3 3.9
2015-Jul-28 07:33N 43°18' E 004°53'4 3.8
2015-Jul-28 06:33N 43°18' E 004°48'4 3.5
2015-Jul-28 05:33N 43°19' E 004°53'2 0.1
2015-Jul-27 12:30N 43°20' E 004°55'3 3.4
2015-Jul-27 11:33N 43°17' E 004°54'4 3.8
2015-Jul-27 10:33N 43°16' E 004°59'6 1.6
2015-Jul-27 06:33N 43°10' E 005°01'4 4.0
2015-Jul-27 05:33N 43°09' E 004°56'3 3.3
2015-Jul-27 04:33N 43°08' E 004°51'3 2.7
2015-Jul-27 03:30N 43°10' E 004°54'4 3.8
2015-Jul-27 02:32N 43°13' E 004°56'9 7.1
2015-Jul-27 01:19N 43°22' E 004°59'  
2015-Jul-24 17:34N 43°24' E 004°59'0 0.4
2015-Jul-24 16:33N 43°24' E 004°60'0 0.0
2015-Jul-24 15:34N 43°24' E 004°60'0 0.0
2015-Jul-24 14:33N 43°24' E 004°60'3 3.4
2015-Jul-24 13:33N 43°21' E 004°58'9 8.5
2015-Jul-24 12:33N 43°13' E 004°55'  

Dump ship's entire track history